createdAt,value
2019-03-25T00:03:23.245Z,71.31
2019-03-25T00:08:17.991Z,70.12
2019-03-25T00:13:12.566Z,70.45
2019-03-25T00:18:07.242Z,70.21
2019-03-25T00:23:01.813Z,72.05
2019-03-25T00:27:56.446Z,73.52
2019-03-25T00:32:51.007Z,73.60
2019-03-25T00:37:45.644Z,73.92
2019-03-25T00:42:59.688Z,74.74
2019-03-25T00:47:54.267Z,75.82
2019-03-25T00:52:48.863Z,75.80
2019-03-25T00:57:43.439Z,76.16
2019-03-25T01:02:38.100Z,76.71
2019-03-25T01:07:32.674Z,76.81
2019-03-25T01:12:27.267Z,76.99
2019-03-25T01:17:21.864Z,76.53
2019-03-25T01:22:16.470Z,76.83
2019-03-25T01:27:11.036Z,75.79
2019-03-25T01:32:05.626Z,76.33
2019-03-25T01:37:00.206Z,75.92
2019-03-25T01:41:54.795Z,74.40
2019-03-25T01:46:49.365Z,74.57
2019-03-25T01:51:43.963Z,74.87
2019-03-25T01:56:38.538Z,76.01
2019-03-25T02:01:33.199Z,75.79
2019-03-25T02:06:27.768Z,76.49
2019-03-25T02:11:22.549Z,77.04
2019-03-25T02:16:17.094Z,75.79
2019-03-25T02:21:11.686Z,74.68
2019-03-25T02:26:06.270Z,74.26
2019-03-25T02:31:00.873Z,74.40
2019-03-25T02:35:55.433Z,74.95
2019-03-25T02:40:50.023Z,75.25
2019-03-25T02:45:44.613Z,76.26
2019-03-25T02:50:39.201Z,76.47
2019-03-25T02:55:41.488Z,76.78
2019-03-25T03:00:40.160Z,77.84
2019-03-25T03:05:35.102Z,78.47
2019-03-25T03:10:29.702Z,79.01
2019-03-25T03:15:24.292Z,79.57
2019-03-25T03:20:19.437Z,79.38
2019-03-25T03:25:14.008Z,79.30
2019-03-25T03:30:09.630Z,78.82
2019-03-25T03:35:06.459Z,78.13
2019-03-25T03:40:01.036Z,78.97
2019-03-25T03:44:55.622Z,78.53
2019-03-25T03:49:50.214Z,78.95
2019-03-25T03:54:45.727Z,78.47
2019-03-25T03:59:40.764Z,78.59
2019-03-25T04:04:35.318Z,78.81
2019-03-25T04:09:29.909Z,78.21
2019-03-25T04:14:24.479Z,78.38
2019-03-25T04:19:19.067Z,78.04
2019-03-25T04:24:13.644Z,77.90
2019-03-25T04:29:08.252Z,77.42
2019-03-25T04:34:02.827Z,77.53
2019-03-25T04:38:57.421Z,77.49
2019-03-25T04:43:54.410Z,77.74
2019-03-25T04:48:48.310Z,78.73
2019-03-25T04:53:42.893Z,79.47
2019-03-25T04:58:37.498Z,79.78
2019-03-25T05:03:32.084Z,80.07
2019-03-25T05:08:26.688Z,79.85
2019-03-25T05:13:21.254Z,79.69
2019-03-25T05:18:15.852Z,79.85
2019-03-25T05:23:10.424Z,80.18
2019-03-25T05:28:05.021Z,81.22
2019-03-25T05:32:59.593Z,81.30
2019-03-25T05:37:54.178Z,81.35
2019-03-25T05:42:48.767Z,80.76
2019-03-25T05:47:43.364Z,80.89
2019-03-25T05:52:37.936Z,80.76
2019-03-25T05:57:32.540Z,79.89
2019-03-25T06:02:27.105Z,79.34
2019-03-25T06:07:21.718Z,78.72
2019-03-25T06:12:16.307Z,78.62
2019-03-25T06:17:10.904Z,78.29
2019-03-25T06:22:05.535Z,75.96
2019-03-25T06:27:00.353Z,76.31
2019-03-25T06:31:54.927Z,75.95
2019-03-25T06:36:49.516Z,75.16
2019-03-25T06:41:44.091Z,74.47
2019-03-25T06:46:38.685Z,73.19
2019-03-25T06:51:33.261Z,73.71
2019-03-25T06:56:27.931Z,72.31
2019-03-25T07:01:22.500Z,72.55
2019-03-25T07:06:17.684Z,70.76
2019-03-25T07:11:12.625Z,70.69
2019-03-25T07:16:07.236Z,70.21
2019-03-25T07:21:01.850Z,71.46
2019-03-25T07:25:56.698Z,71.01
2019-03-25T07:30:52.364Z,71.17
2019-03-25T07:35:47.137Z,70.89
2019-03-25T07:40:47.656Z,71.15
2019-03-25T07:45:51.244Z,70.84
2019-03-25T07:50:50.474Z,69.30
2019-03-25T07:55:45.273Z,67.84
2019-03-25T08:00:40.007Z,67.80
2019-03-25T08:05:39.752Z,67.34
2019-03-25T08:10:36.070Z,67.58
2019-03-25T08:15:30.830Z,66.94
2019-03-25T08:20:25.430Z,64.78
2019-03-25T08:25:20.030Z,63.70
2019-03-25T08:30:15.910Z,62.22
2019-03-25T08:35:13.887Z,60.41
2019-03-25T08:40:10.742Z,58.40
2019-03-25T08:45:07.498Z,54.43
2019-03-25T08:50:02.212Z,47.89
2019-03-25T08:54:59.361Z,41.84
2019-03-25T08:59:54.195Z,39.59
2019-03-25T09:04:48.809Z,39.33
2019-03-25T09:09:43.717Z,37.95
2019-03-25T09:14:40.985Z,38.50
2019-03-25T09:19:36.102Z,37.91
2019-03-25T09:24:32.951Z,38.08
2019-03-25T09:29:27.406Z,37.32
2019-03-25T09:34:22.032Z,37.64
2019-03-25T09:39:16.769Z,37.84
2019-03-25T09:44:11.607Z,38.22
2019-03-25T09:49:06.321Z,38.61
2019-03-25T09:54:00.932Z,40.29
2019-03-25T09:58:55.505Z,39.09
2019-03-25T10:03:52.452Z,40.14
2019-03-25T10:08:47.109Z,40.49
2019-03-25T10:13:44.364Z,41.86
2019-03-25T10:18:41.479Z,42.13
2019-03-25T10:23:37.160Z,42.86
2019-03-25T10:28:31.770Z,42.53
2019-03-25T10:33:30.705Z,43.05
2019-03-25T10:38:27.428Z,41.87
2019-03-25T10:43:22.037Z,41.06
2019-03-25T10:48:16.805Z,40.69
2019-03-25T10:53:11.480Z,40.70
2019-03-25T10:58:06.193Z,41.12
2019-03-25T11:03:01.656Z,40.00
2019-03-25T11:07:56.618Z,40.26
2019-03-25T11:12:51.305Z,39.33
2019-03-25T11:17:46.923Z,37.53
2019-03-25T11:22:41.549Z,36.82
2019-03-25T11:27:36.246Z,36.99
2019-03-25T11:32:30.903Z,36.67
2019-03-25T11:37:25.527Z,36.73
2019-03-25T11:42:20.110Z,37.31
2019-03-25T11:47:20.177Z,40.47
2019-03-25T11:52:19.038Z,37.82
2019-03-25T11:57:17.326Z,37.79
2019-03-25T12:02:18.060Z,38.84
2019-03-25T12:07:20.318Z,40.20
2019-03-25T12:12:20.304Z,40.92
2019-03-25T12:17:21.220Z,40.37
2019-03-25T12:22:22.613Z,40.59
2019-03-25T12:27:22.471Z,39.09
2019-03-25T12:32:23.663Z,39.08
2019-03-25T12:37:24.933Z,40.07
2019-03-25T12:42:23.981Z,40.29
2019-03-25T12:47:18.731Z,39.52
2019-03-25T12:52:13.355Z,39.67
2019-03-25T12:57:07.957Z,37.54
2019-03-25T13:02:02.588Z,37.88
2019-03-25T13:06:57.189Z,38.53
2019-03-25T13:11:52.041Z,37.86
2019-03-25T13:16:46.928Z,39.22
2019-03-25T13:21:42.853Z,38.02
2019-03-25T13:26:37.942Z,36.99
2019-03-25T13:31:32.653Z,38.50
2019-03-25T13:36:27.256Z,37.27
2019-03-25T13:41:22.016Z,37.44
2019-03-25T13:46:16.801Z,36.63
2019-03-25T13:51:11.410Z,37.38
2019-03-25T13:56:06.370Z,37.26
2019-03-25T14:01:01.300Z,37.42
2019-03-25T14:05:57.955Z,36.55
2019-03-25T14:10:52.365Z,37.46
2019-03-25T14:15:47.022Z,37.06
2019-03-25T14:20:59.320Z,38.76
2019-03-25T14:25:53.962Z,39.28
2019-03-25T14:30:48.571Z,38.35
2019-03-25T14:35:43.173Z,44.92
2019-03-25T14:40:37.918Z,47.02
2019-03-25T14:45:32.681Z,45.11
2019-03-25T14:50:27.405Z,41.74
2019-03-25T14:55:22.155Z,40.85
2019-03-25T15:00:25.073Z,40.36
2019-03-25T15:05:14.785Z,42.46
2019-03-25T15:10:10.178Z,43.55
2019-03-25T15:15:10.740Z,41.78
2019-03-25T15:20:10.165Z,44.38
2019-03-25T15:25:08.642Z,45.06
2019-03-25T15:30:04.335Z,42.89
2019-03-25T15:35:00.372Z,42.82
2019-03-25T15:39:54.955Z,41.87
2019-03-25T15:44:49.525Z,44.19
2019-03-25T15:49:44.370Z,46.16
2019-03-25T15:54:38.969Z,43.86
2019-03-25T15:59:33.661Z,41.33
2019-03-25T16:04:28.259Z,42.47
2019-03-25T16:09:23.224Z,43.48
2019-03-25T16:14:17.818Z,43.93
2019-03-25T16:19:12.498Z,44.75
2019-03-25T16:24:07.169Z,44.17
2019-03-25T16:29:03.924Z,44.92
2019-03-25T16:33:58.658Z,47.46
2019-03-25T16:38:53.269Z,48.63
2019-03-25T16:43:47.854Z,46.58
2019-03-25T16:48:42.442Z,46.18
2019-03-25T16:53:37.015Z,46.77
2019-03-25T16:58:31.631Z,46.60
2019-03-25T17:03:26.290Z,46.29
2019-03-25T17:08:20.957Z,46.47
2019-03-25T17:13:15.569Z,54.13
2019-03-25T17:18:10.152Z,74.55
2019-03-25T17:23:04.814Z,83.18
2019-03-25T17:27:59.413Z,86.32
2019-03-25T17:32:54.007Z,87.19
2019-03-25T17:37:48.614Z,87.13
2019-03-25T17:42:43.255Z,86.75
2019-03-25T17:47:37.920Z,90.58
2019-03-25T17:52:32.514Z,82.90
2019-03-25T17:57:27.267Z,84.13
2019-03-25T18:02:21.859Z,82.36
2019-03-25T18:07:16.466Z,82.51
2019-03-25T18:12:11.736Z,83.64
2019-03-25T18:17:06.414Z,82.06
2019-03-25T18:22:01.090Z,81.86
2019-03-25T18:26:55.677Z,81.74
2019-03-25T18:31:50.267Z,83.00
2019-03-25T18:36:44.841Z,83.81
2019-03-25T18:41:39.455Z,82.86
2019-03-25T18:46:34.190Z,80.19
2019-03-25T18:51:28.839Z,81.79
2019-03-25T18:56:23.431Z,81.17
2019-03-25T19:01:18.202Z,80.10
2019-03-25T19:06:12.807Z,80.77
2019-03-25T19:11:07.405Z,81.77
2019-03-25T19:16:02.046Z,80.93
2019-03-25T19:20:56.645Z,77.91
2019-03-25T19:25:51.270Z,77.24
2019-03-25T19:30:45.854Z,79.44
2019-03-25T19:35:40.464Z,78.99
2019-03-25T19:40:35.101Z,79.47
2019-03-25T19:45:30.795Z,80.32
2019-03-25T19:50:25.536Z,79.53
2019-03-25T19:55:20.313Z,81.59
2019-03-25T20:00:16.004Z,85.63
2019-03-25T20:05:11.058Z,85.04
2019-03-25T20:10:10.443Z,85.51
2019-03-25T20:15:07.972Z,85.43
2019-03-25T20:20:02.762Z,85.47
2019-03-25T20:24:57.513Z,85.83
2019-03-25T20:29:52.276Z,83.99
2019-03-25T20:34:46.967Z,82.01
2019-03-25T20:39:41.553Z,82.33
2019-03-25T20:44:36.186Z,82.15
2019-03-25T20:49:30.866Z,81.52
2019-03-25T20:54:25.616Z,83.41
2019-03-25T20:59:20.328Z,82.18
2019-03-25T21:04:15.036Z,83.32
2019-03-25T21:09:09.779Z,83.09
2019-03-25T21:14:04.587Z,83.34
2019-03-25T21:18:59.182Z,79.75
2019-03-25T21:23:53.779Z,78.02
2019-03-25T21:28:48.369Z,78.41
2019-03-25T21:33:43.094Z,80.82
2019-03-25T21:38:37.703Z,79.28
2019-03-25T21:43:32.324Z,76.35
2019-03-25T21:48:26.948Z,78.19
2019-03-25T21:53:21.627Z,78.35
2019-03-25T21:58:16.261Z,80.05
2019-03-25T22:03:12.502Z,80.02
2019-03-25T22:08:07.289Z,78.90
2019-03-25T22:13:01.878Z,79.11
2019-03-25T22:17:56.451Z,80.22
2019-03-25T22:22:51.036Z,80.51
2019-03-25T22:27:45.605Z,80.63
2019-03-25T22:32:40.203Z,79.12
2019-03-25T22:37:34.859Z,79.97
2019-03-25T22:42:29.468Z,79.67
2019-03-25T22:47:24.075Z,78.49
2019-03-25T22:52:18.670Z,78.65
2019-03-25T22:57:13.273Z,79.56
2019-03-25T23:02:07.987Z,80.13
2019-03-25T23:07:02.605Z,80.63
2019-03-25T23:11:57.302Z,79.87
2019-03-25T23:16:51.930Z,80.63
2019-03-25T23:21:46.506Z,79.39
2019-03-25T23:26:41.178Z,77.95
2019-03-25T23:31:35.798Z,78.76
2019-03-25T23:36:30.364Z,77.96
2019-03-25T23:41:24.943Z,78.69
2019-03-25T23:46:19.532Z,77.79
2019-03-25T23:51:14.126Z,77.25
2019-03-25T23:56:08.736Z,76.85
